sensor_id;sensor_type;location;lat;lon;timestamp;temperature;humidity
31455;DHT22;18084;53.028;8.834;2023-06-10T05:04:56;14.20;99.90
31455;DHT22;18084;53.028;8.834;2023-06-10T05:07:23;14.10;99.90
31455;DHT22;18084;53.028;8.834;2023-06-10T05:09:48;13.90;99.90
31455;DHT22;18084;53.028;8.834;2023-06-10T05:12:14;13.90;99.90
31455;DHT22;18084;53.028;8.834;2023-06-10T05:14:39;13.90;99.90
31455;DHT22;18084;53.028;8.834;2023-06-10T05:17:05;13.80;99.90
31455;DHT22;18084;53.028;8.834;2023-06-10T05:19:32;13.60;99.90
31455;DHT22;18084;53.028;8.834;2023-06-10T05:21:58;13.70;99.90
31455;DHT22;18084;53.028;8.834;2023-06-10T05:24:23;13.80;99.90
31455;DHT22;18084;53.028;8.834;2023-06-10T05:26:49;13.80;99.90
31455;DHT22;18084;53.028;8.834;2023-06-10T05:29:14;13.90;99.90
31455;DHT22;18084;53.028;8.834;2023-06-10T05:31:41;14.10;99.90
31455;DHT22;18084;53.028;8.834;2023-06-10T05:34:06;14.20;99.90
31455;DHT22;18084;53.028;8.834;2023-06-10T05:36:32;13.90;99.90
31455;DHT22;18084;53.028;8.834;2023-06-10T05:38:58;14.00;99.90
31455;DHT22;18084;53.028;8.834;2023-06-10T05:41:23;14.10;99.90
31455;DHT22;18084;53.028;8.834;2023-06-10T05:43:49;14.40;99.90
31455;DHT22;18084;53.028;8.834;2023-06-10T05:46:14;14.70;99.90
31455;DHT22;18084;53.028;8.834;2023-06-10T05:48:40;14.80;99.90
31455;DHT22;18084;53.028;8.834;2023-06-10T05:51:05;14.80;97.40
31455;DHT22;18084;53.028;8.834;2023-06-10T05:53:32;14.60;99.90
31455;DHT22;18084;53.028;8.834;2023-06-10T05:55:57;14.60;99.90
31455;DHT22;18084;53.028;8.834;2023-06-10T05:58:24;14.60;99.90
31455;DHT22;18084;53.028;8.834;2023-06-10T06:00:49;14.60;99.90
31455;DHT22;18084;53.028;8.834;2023-06-10T06:03:15;14.60;99.90
31455;DHT22;18084;53.028;8.834;2023-06-10T06:05:40;14.80;99.90
31455;DHT22;18084;53.028;8.834;2023-06-10T06:08:07;14.80;96.30
31455;DHT22;18084;53.028;8.834;2023-06-10T06:10:33;14.90;92.90
31455;DHT22;18084;53.028;8.834;2023-06-10T06:12:58;14.90;94.20
31455;DHT22;18084;53.028;8.834;2023-06-10T06:15:24;14.90;91.00
31455;DHT22;18084;53.028;8.834;2023-06-10T06:17:49;14.70;95.00
31455;DHT22;18084;53.028;8.834;2023-06-10T06:20:18;14.80;94.90
31455;DHT22;18084;53.028;8.834;2023-06-10T06:22:44;14.80;92.70
31455;DHT22;18084;53.028;8.834;2023-06-10T06:25:09;14.90;90.40
31455;DHT22;18084;53.028;8.834;2023-06-10T06:27:35;15.00;91.30
31455;DHT22;18084;53.028;8.834;2023-06-10T06:30:01;15.20;81.50
31455;DHT22;18084;53.028;8.834;2023-06-10T06:32:27;15.40;71.50
31455;DHT22;18084;53.028;8.834;2023-06-10T06:34:53;16.40;66.00
31455;DHT22;18084;53.028;8.834;2023-06-10T06:37:23;16.40;65.00
31455;DHT22;18084;53.028;8.834;2023-06-10T06:39:53;17.60;1.00
31455;DHT22;18084;53.028;8.834;2023-06-10T06:42:20;18.20;93.40
31455;DHT22;18084;53.028;8.834;2023-06-10T06:44:46;18.40;99.90
31455;DHT22;18084;53.028;8.834;2023-06-10T06:47:13;19.10;92.40
31455;DHT22;18084;53.028;8.834;2023-06-10T06:49:38;19.80;99.90
31455;DHT22;18084;53.028;8.834;2023-06-10T06:52:04;20.30;99.90
31455;DHT22;18084;53.028;8.834;2023-06-10T06:54:31;21.10;98.20
31455;DHT22;18084;53.028;8.834;2023-06-10T06:56:57;21.70;99.90
31455;DHT22;18084;53.028;8.834;2023-06-10T06:59:23;21.90;99.90
31455;DHT22;18084;53.028;8.834;2023-06-10T07:01:50;22.10;99.90
31455;DHT22;18084;53.028;8.834;2023-06-10T07:04:16;22.60;83.90
31455;DHT22;18084;53.028;8.834;2023-06-10T07:06:42;22.20;67.90
31455;DHT22;18084;53.028;8.834;2023-06-10T07:09:08;22.00;84.00
31455;DHT22;18084;53.028;8.834;2023-06-10T07:11:36;21.80;61.60
31455;DHT22;18084;53.028;8.834;2023-06-10T07:14:02;21.90;87.50
31455;DHT22;18084;53.028;8.834;2023-06-10T07:16:29;22.70;22.80
31455;DHT22;18084;53.028;8.834;2023-06-10T07:18:54;22.50;5.00
31455;DHT22;18084;53.028;8.834;2023-06-10T07:21:23;22.80;1.00
31455;DHT22;18084;53.028;8.834;2023-06-10T07:23:49;23.30;1.00
31455;DHT22;18084;53.028;8.834;2023-06-10T07:26:17;23.60;1.00
31455;DHT22;18084;53.028;8.834;2023-06-10T07:28:43;23.30;1.00
31455;DHT22;18084;53.028;8.834;2023-06-10T07:31:09;24.00;1.00
31455;DHT22;18084;53.028;8.834;2023-06-10T07:33:37;24.50;99.90
31455;DHT22;18084;53.028;8.834;2023-06-10T07:36:05;24.30;99.90
31455;DHT22;18084;53.028;8.834;2023-06-10T07:38:30;24.20;99.90
31455;DHT22;18084;53.028;8.834;2023-06-10T07:40:56;23.50;99.90
31455;DHT22;18084;53.028;8.834;2023-06-10T07:43:22;23.70;99.90
31455;DHT22;18084;53.028;8.834;2023-06-10T07:45:47;23.30;99.90
31455;DHT22;18084;53.028;8.834;2023-06-10T07:48:13;23.50;99.90
31455;DHT22;18084;53.028;8.834;2023-06-10T07:50:39;23.60;99.90
31455;DHT22;18084;53.028;8.834;2023-06-10T07:53:05;24.10;99.90
31455;DHT22;18084;53.028;8.834;2023-06-10T07:55:31;25.60;99.90
31455;DHT22;18084;53.028;8.834;2023-06-10T07:57:56;24.00;99.90
31455;DHT22;18084;53.028;8.834;2023-06-10T08:00:22;24.00;99.90
31455;DHT22;18084;53.028;8.834;2023-06-10T08:02:48;25.00;99.90
31455;DHT22;18084;53.028;8.834;2023-06-10T08:05:13;24.70;99.90
31455;DHT22;18084;53.028;8.834;2023-06-10T08:07:40;24.60;99.90
31455;DHT22;18084;53.028;8.834;2023-06-10T08:10:06;24.80;99.90
31455;DHT22;18084;53.028;8.834;2023-06-10T08:12:33;24.70;99.90
31455;DHT22;18084;53.028;8.834;2023-06-10T08:14:59;24.50;99.90
31455;DHT22;18084;53.028;8.834;2023-06-10T08:17:25;24.00;99.90
31455;DHT22;18084;53.028;8.834;2023-06-10T08:19:53;24.30;99.90
31455;DHT22;18084;53.028;8.834;2023-06-10T08:22:18;24.80;99.90
31455;DHT22;18084;53.028;8.834;2023-06-10T08:24:46;24.60;99.90
31455;DHT22;18084;53.028;8.834;2023-06-10T08:27:11;25.10;99.90
31455;DHT22;18084;53.028;8.834;2023-06-10T08:29:37;25.00;99.90
31455;DHT22;18084;53.028;8.834;2023-06-10T08:32:02;25.60;99.90
31455;DHT22;18084;53.028;8.834;2023-06-10T08:34:28;25.50;99.90
31455;DHT22;18084;53.028;8.834;2023-06-10T08:36:54;25.60;99.90
31455;DHT22;18084;53.028;8.834;2023-06-10T08:39:22;25.70;99.90
31455;DHT22;18084;53.028;8.834;2023-06-10T08:44:31;25.20;99.90
31455;DHT22;18084;53.028;8.834;2023-06-10T08:47:06;25.00;99.90
31455;DHT22;18084;53.028;8.834;2023-06-10T08:49:38;24.70;99.90
31455;DHT22;18084;53.028;8.834;2023-06-10T08:52:04;24.90;99.90
31455;DHT22;18084;53.028;8.834;2023-06-10T08:54:33;24.90;99.90
31455;DHT22;18084;53.028;8.834;2023-06-10T08:57:05;25.30;99.90
31455;DHT22;18084;53.028;8.834;2023-06-10T08:59:32;24.80;99.90
31455;DHT22;18084;53.028;8.834;2023-06-10T09:01:58;24.60;99.90
31455;DHT22;18084;53.028;8.834;2023-06-10T09:04:24;24.50;99.90
31455;DHT22;18084;53.028;8.834;2023-06-10T09:09:17;25.10;99.90
31455;DHT22;18084;53.028;8.834;2023-06-10T09:11:44;25.20;99.90
31455;DHT22;18084;53.028;8.834;2023-06-10T09:14:10;25.60;99.90
31455;DHT22;18084;53.028;8.834;2023-06-10T09:16:37;25.30;99.90
31455;DHT22;18084;53.028;8.834;2023-06-10T09:19:03;25.30;99.90
31455;DHT22;18084;53.028;8.834;2023-06-10T09:21:33;24.90;99.90
31455;DHT22;18084;53.028;8.834;2023-06-10T09:23:59;24.80;99.90
31455;DHT22;18084;53.028;8.834;2023-06-10T09:26:29;24.70;99.90
31455;DHT22;18084;53.028;8.834;2023-06-10T09:29:04;24.90;99.90
31455;DHT22;18084;53.028;8.834;2023-06-10T09:31:33;25.10;99.90
31455;DHT22;18084;53.028;8.834;2023-06-10T09:36:36;24.80;99.90
31455;DHT22;18084;53.028;8.834;2023-06-10T09:39:03;24.80;99.90
31455;DHT22;18084;53.028;8.834;2023-06-10T09:41:38;24.90;99.90
31455;DHT22;18084;53.028;8.834;2023-06-10T09:44:12;25.00;99.90
31455;DHT22;18084;53.028;8.834;2023-06-10T09:46:39;24.70;99.90
31455;DHT22;18084;53.028;8.834;2023-06-10T09:49:05;24.80;99.90
31455;DHT22;18084;53.028;8.834;2023-06-10T09:51:31;26.00;99.90
31455;DHT22;18084;53.028;8.834;2023-06-10T09:53:57;25.10;99.90
31455;DHT22;18084;53.028;8.834;2023-06-10T09:56:35;25.00;99.90
31455;DHT22;18084;53.028;8.834;2023-06-10T09:59:02;25.10;99.90
31455;DHT22;18084;53.028;8.834;2023-06-10T10:01:29;25.30;99.90
31455;DHT22;18084;53.028;8.834;2023-06-10T10:03:55;25.70;99.90
31455;DHT22;18084;53.028;8.834;2023-06-10T10:06:21;25.60;99.90
31455;DHT22;18084;53.028;8.834;2023-06-10T10:08:48;25.80;99.90
31455;DHT22;18084;53.028;8.834;2023-06-10T10:11:19;25.90;99.90
31455;DHT22;18084;53.028;8.834;2023-06-10T10:13:49;27.20;99.90
31455;DHT22;18084;53.028;8.834;2023-06-10T10:16:20;25.30;99.90
31455;DHT22;18084;53.028;8.834;2023-06-10T10:18:54;25.20;99.90
31455;DHT22;18084;53.028;8.834;2023-06-10T10:21:23;25.50;99.90
31455;DHT22;18084;53.028;8.834;2023-06-10T10:24:16;26.10;99.90
31455;DHT22;18084;53.028;8.834;2023-06-10T10:26:39;25.40;99.90
31455;DHT22;18084;53.028;8.834;2023-06-10T10:29:30;28.10;99.90
31455;DHT22;18084;53.028;8.834;2023-06-10T10:31:56;26.00;99.90
31455;DHT22;18084;53.028;8.834;2023-06-10T10:34:30;25.90;99.90
31455;DHT22;18084;53.028;8.834;2023-06-10T10:37:01;25.60;99.90
31455;DHT22;18084;53.028;8.834;2023-06-10T10:39:26;25.70;99.90
31455;DHT22;18084;53.028;8.834;2023-06-10T10:41:54;27.40;99.90
31455;DHT22;18084;53.028;8.834;2023-06-10T10:44:20;25.80;99.90
31455;DHT22;18084;53.028;8.834;2023-06-10T10:46:50;25.90;99.90
31455;DHT22;18084;53.028;8.834;2023-06-10T10:49:17;25.80;99.90
31455;DHT22;18084;53.028;8.834;2023-06-10T10:52:00;26.20;99.90
31455;DHT22;18084;53.028;8.834;2023-06-10T10:54:35;26.20;99.90
31455;DHT22;18084;53.028;8.834;2023-06-10T11:02:17;26.00;99.90
31455;DHT22;18084;53.028;8.834;2023-06-10T11:04:47;26.60;99.90
31455;DHT22;18084;53.028;8.834;2023-06-10T11:07:13;26.20;99.90
31455;DHT22;18084;53.028;8.834;2023-06-10T11:10:01;26.40;99.90
31455;DHT22;18084;53.028;8.834;2023-06-10T11:15:45;26.80;99.90
31455;DHT22;18084;53.028;8.834;2023-06-10T11:18:22;26.80;99.90
31455;DHT22;18084;53.028;8.834;2023-06-10T11:28:35;29.30;99.90
31455;DHT22;18084;53.028;8.834;2023-06-10T11:31:00;29.10;99.90
31455;DHT22;18084;53.028;8.834;2023-06-10T11:38:18;26.30;97.90
31455;DHT22;18084;53.028;8.834;2023-06-10T11:40:51;26.90;99.90
31455;DHT22;18084;53.028;8.834;2023-06-10T11:43:18;27.40;99.90
31455;DHT22;18084;53.028;8.834;2023-06-10T11:45:44;29.20;99.90
31455;DHT22;18084;53.028;8.834;2023-06-10T11:48:10;27.10;99.90
31455;DHT22;18084;53.028;8.834;2023-06-10T11:50:38;27.50;99.90
31455;DHT22;18084;53.028;8.834;2023-06-10T11:53:05;26.60;99.90
31455;DHT22;18084;53.028;8.834;2023-06-10T11:55:47;27.60;99.90
31455;DHT22;18084;53.028;8.834;2023-06-10T11:58:16;27.90;99.90
31455;DHT22;18084;53.028;8.834;2023-06-10T12:00:55;27.90;99.50
31455;DHT22;18084;53.028;8.834;2023-06-10T12:03:24;27.70;98.40
31455;DHT22;18084;53.028;8.834;2023-06-10T12:06:01;29.60;99.90
31455;DHT22;18084;53.028;8.834;2023-06-10T12:15:46;27.90;92.60
31455;DHT22;18084;53.028;8.834;2023-06-10T12:18:22;30.80;99.10
31455;DHT22;18084;53.028;8.834;2023-06-10T12:20:54;28.10;93.50
31455;DHT22;18084;53.028;8.834;2023-06-10T12:23:22;28.80;93.80
31455;DHT22;18084;53.028;8.834;2023-06-10T12:25:53;28.30;96.60
31455;DHT22;18084;53.028;8.834;2023-06-10T12:28:23;29.30;96.60
31455;DHT22;18084;53.028;8.834;2023-06-10T12:30:48;31.40;93.00
31455;DHT22;18084;53.028;8.834;2023-06-10T12:33:18;28.50;94.50
31455;DHT22;18084;53.028;8.834;2023-06-10T12:35:51;28.20;91.60
31455;DHT22;18084;53.028;8.834;2023-06-10T12:38:21;28.90;92.20
31455;DHT22;18084;53.028;8.834;2023-06-10T12:40:48;28.00;91.30
31455;DHT22;18084;53.028;8.834;2023-06-10T12:43:13;28.10;91.50
31455;DHT22;18084;53.028;8.834;2023-06-10T12:48:21;28.30;79.00
31455;DHT22;18084;53.028;8.834;2023-06-10T12:50:57;28.50;87.90
31455;DHT22;18084;53.028;8.834;2023-06-10T12:53:25;28.70;90.00
31455;DHT22;18084;53.028;8.834;2023-06-10T13:00:48;28.80;76.80
31455;DHT22;18084;53.028;8.834;2023-06-10T13:03:14;28.90;86.30
31455;DHT22;18084;53.028;8.834;2023-06-10T13:05:40;31.10;91.20
31455;DHT22;18084;53.028;8.834;2023-06-10T13:08:07;29.20;82.40
31455;DHT22;18084;53.028;8.834;2023-06-10T13:13:03;28.80;67.20
31455;DHT22;18084;53.028;8.834;2023-06-10T13:15:31;28.70;77.60
31455;DHT22;18084;53.028;8.834;2023-06-10T13:17:57;28.70;77.80
31455;DHT22;18084;53.028;8.834;2023-06-10T13:20:23;29.20;81.80
31455;DHT22;18084;53.028;8.834;2023-06-10T13:22:49;29.30;79.50
31455;DHT22;18084;53.028;8.834;2023-06-10T13:25:15;29.20;80.80
31455;DHT22;18084;53.028;8.834;2023-06-10T13:30:09;29.40;71.00
31455;DHT22;18084;53.028;8.834;2023-06-10T13:32:35;29.60;69.60
31455;DHT22;18084;53.028;8.834;2023-06-10T13:37:30;29.30;66.30
31455;DHT22;18084;53.028;8.834;2023-06-10T13:39:55;29.40;85.40
31455;DHT22;18084;53.028;8.834;2023-06-10T13:42:21;29.20;78.50
31455;DHT22;18084;53.028;8.834;2023-06-10T13:44:47;29.40;83.20
31455;DHT22;18084;53.028;8.834;2023-06-10T13:47:14;29.30;80.40
31455;DHT22;18084;53.028;8.834;2023-06-10T13:49:40;31.00;83.70
31455;DHT22;18084;53.028;8.834;2023-06-10T13:52:06;30.40;82.80
31455;DHT22;18084;53.028;8.834;2023-06-10T13:54:32;29.60;80.40
31455;DHT22;18084;53.028;8.834;2023-06-10T13:57:05;29.40;82.20
31455;DHT22;18084;53.028;8.834;2023-06-10T14:04:23;29.50;76.70
31455;DHT22;18084;53.028;8.834;2023-06-10T14:06:48;29.80;90.30
31455;DHT22;18084;53.028;8.834;2023-06-10T14:09:14;29.90;84.80
31455;DHT22;18084;53.028;8.834;2023-06-10T14:11:40;30.10;85.10
31455;DHT22;18084;53.028;8.834;2023-06-10T14:14:07;31.10;84.80
31455;DHT22;18084;53.028;8.834;2023-06-10T14:16:33;29.90;83.40
31455;DHT22;18084;53.028;8.834;2023-06-10T14:18:58;30.30;86.40
31455;DHT22;18084;53.028;8.834;2023-06-10T14:21:25;30.10;88.10
31455;DHT22;18084;53.028;8.834;2023-06-10T14:23:50;29.10;88.50
31455;DHT22;18084;53.028;8.834;2023-06-10T14:28:44;29.80;74.90
31455;DHT22;18084;53.028;8.834;2023-06-10T14:31:10;29.80;89.90
31455;DHT22;18084;53.028;8.834;2023-06-10T14:33:36;29.20;88.90
31455;DHT22;18084;53.028;8.834;2023-06-10T14:36:01;30.90;87.10
31455;DHT22;18084;53.028;8.834;2023-06-10T14:38:27;30.20;88.60
31455;DHT22;18084;53.028;8.834;2023-06-10T14:40:53;30.20;86.60
31455;DHT22;18084;53.028;8.834;2023-06-10T14:43:18;30.10;85.80
31455;DHT22;18084;53.028;8.834;2023-06-10T14:45:44;30.10;89.20
31455;DHT22;18084;53.028;8.834;2023-06-10T14:48:10;30.20;90.90
31455;DHT22;18084;53.028;8.834;2023-06-10T14:50:37;30.50;90.60
31455;DHT22;18084;53.028;8.834;2023-06-10T14:53:02;31.20;91.90
31455;DHT22;18084;53.028;8.834;2023-06-10T14:55:28;30.20;88.50
31455;DHT22;18084;53.028;8.834;2023-06-10T14:57:53;30.10;88.70
31455;DHT22;18084;53.028;8.834;2023-06-10T15:00:19;30.20;89.90
31455;DHT22;18084;53.028;8.834;2023-06-10T15:02:51;30.20;87.50
31455;DHT22;18084;53.028;8.834;2023-06-10T15:05:17;30.20;91.10
31455;DHT22;18084;53.028;8.834;2023-06-10T15:07:45;30.20;89.60
31455;DHT22;18084;53.028;8.834;2023-06-10T15:10:10;30.10;89.40
31455;DHT22;18084;53.028;8.834;2023-06-10T15:12:36;30.30;89.10
31455;DHT22;18084;53.028;8.834;2023-06-10T15:15:02;30.20;87.10
31455;DHT22;18084;53.028;8.834;2023-06-10T15:17:29;30.20;88.90
31455;DHT22;18084;53.028;8.834;2023-06-10T15:19:55;30.10;93.00
31455;DHT22;18084;53.028;8.834;2023-06-10T15:22:21;29.80;95.20
31455;DHT22;18084;53.028;8.834;2023-06-10T15:24:46;33.70;92.80
31455;DHT22;18084;53.028;8.834;2023-06-10T15:27:12;30.20;91.50
31455;DHT22;18084;53.028;8.834;2023-06-10T15:29:38;30.20;90.90
31455;DHT22;18084;53.028;8.834;2023-06-10T15:32:04;31.40;92.50
31455;DHT22;18084;53.028;8.834;2023-06-10T15:34:32;30.60;90.40
31455;DHT22;18084;53.028;8.834;2023-06-10T15:36:59;30.30;89.60
31455;DHT22;18084;53.028;8.834;2023-06-10T15:39:25;30.30;92.80
31455;DHT22;18084;53.028;8.834;2023-06-10T15:41:52;30.20;86.80
31455;DHT22;18084;53.028;8.834;2023-06-10T15:44:18;30.10;86.90
31455;DHT22;18084;53.028;8.834;2023-06-10T15:46:43;30.20;92.20
31455;DHT22;18084;53.028;8.834;2023-06-10T15:51:35;30.40;80.60
31455;DHT22;18084;53.028;8.834;2023-06-10T15:54:01;31.50;87.30
31455;DHT22;18084;53.028;8.834;2023-06-10T15:56:26;29.20;86.60
31455;DHT22;18084;53.028;8.834;2023-06-10T15:58:52;31.30;92.20
31455;DHT22;18084;53.028;8.834;2023-06-10T16:01:18;31.10;89.20
31455;DHT22;18084;53.028;8.834;2023-06-10T16:03:44;30.70;91.30
31455;DHT22;18084;53.028;8.834;2023-06-10T16:06:09;31.50;95.00
31455;DHT22;18084;53.028;8.834;2023-06-10T16:08:35;30.00;84.90
31455;DHT22;18084;53.028;8.834;2023-06-10T16:11:01;30.50;89.30
31455;DHT22;18084;53.028;8.834;2023-06-10T16:13:28;30.60;89.50
31455;DHT22;18084;53.028;8.834;2023-06-10T16:15:55;31.10;87.80
31455;DHT22;18084;53.028;8.834;2023-06-10T16:18:21;31.40;88.00
31455;DHT22;18084;53.028;8.834;2023-06-10T16:20:48;30.60;88.10
31455;DHT22;18084;53.028;8.834;2023-06-10T16:23:15;30.70;92.70
31455;DHT22;18084;53.028;8.834;2023-06-10T16:25:41;30.60;86.10
31455;DHT22;18084;53.028;8.834;2023-06-10T16:28:08;30.40;90.10
31455;DHT22;18084;53.028;8.834;2023-06-10T16:30:33;32.00;94.00
31455;DHT22;18084;53.028;8.834;2023-06-10T16:32:59;30.20;90.80
31455;DHT22;18084;53.028;8.834;2023-06-10T16:35:25;31.40;91.90
31455;DHT22;18084;53.028;8.834;2023-06-10T16:40:17;30.70;80.30
31455;DHT22;18084;53.028;8.834;2023-06-10T16:42:42;30.60;88.80
31455;DHT22;18084;53.028;8.834;2023-06-10T16:45:08;30.50;79.20
31455;DHT22;18084;53.028;8.834;2023-06-10T16:47:34;30.50;89.60
31455;DHT22;18084;53.028;8.834;2023-06-10T16:49:59;30.20;86.40
31455;DHT22;18084;53.028;8.834;2023-06-10T16:52:25;29.80;88.40
31455;DHT22;18084;53.028;8.834;2023-06-10T16:54:51;30.00;91.70
31455;DHT22;18084;53.028;8.834;2023-06-10T16:57:16;29.80;92.00
31455;DHT22;18084;53.028;8.834;2023-06-10T17:02:08;29.90;88.90
31455;DHT22;18084;53.028;8.834;2023-06-10T17:04:33;32.80;98.30
31455;DHT22;18084;53.028;8.834;2023-06-10T17:06:59;32.00;97.00
31455;DHT22;18084;53.028;8.834;2023-06-10T17:09:25;31.50;95.40
31455;DHT22;18084;53.028;8.834;2023-06-10T17:11:51;29.30;95.00
31455;DHT22;18084;53.028;8.834;2023-06-10T17:14:20;29.10;95.60
31455;DHT22;18084;53.028;8.834;2023-06-10T17:16:51;28.90;97.90
31455;DHT22;18084;53.028;8.834;2023-06-10T17:19:17;28.70;97.60
31455;DHT22;18084;53.028;8.834;2023-06-10T17:21:44;29.40;98.50
31455;DHT22;18084;53.028;8.834;2023-06-10T17:24:10;28.80;99.20
31455;DHT22;18084;53.028;8.834;2023-06-10T17:26:35;28.80;99.80
31455;DHT22;18084;53.028;8.834;2023-06-10T17:29:01;30.00;99.70
31455;DHT22;18084;53.028;8.834;2023-06-10T17:31:27;29.00;99.90
31455;DHT22;18084;53.028;8.834;2023-06-10T17:33:53;29.10;99.10
31455;DHT22;18084;53.028;8.834;2023-06-10T17:36:18;31.10;99.90
31455;DHT22;18084;53.028;8.834;2023-06-10T17:38:44;28.40;98.50
31455;DHT22;18084;53.028;8.834;2023-06-10T17:41:10;29.10;98.70
31455;DHT22;18084;53.028;8.834;2023-06-10T17:43:36;29.10;99.00
31455;DHT22;18084;53.028;8.834;2023-06-10T17:46:01;30.60;99.20
31455;DHT22;18084;53.028;8.834;2023-06-10T17:48:27;29.30;99.90
31455;DHT22;18084;53.028;8.834;2023-06-10T17:50:53;29.10;99.40
31455;DHT22;18084;53.028;8.834;2023-06-10T17:53:18;29.10;99.90
31455;DHT22;18084;53.028;8.834;2023-06-10T17:55:44;29.10;99.90
31455;DHT22;18084;53.028;8.834;2023-06-10T17:58:09;29.20;99.90
31455;DHT22;18084;53.028;8.834;2023-06-10T18:00:35;29.00;99.90
31455;DHT22;18084;53.028;8.834;2023-06-10T18:03:01;28.70;99.90
31455;DHT22;18084;53.028;8.834;2023-06-10T18:05:26;28.60;99.90
31455;DHT22;18084;53.028;8.834;2023-06-10T18:07:52;28.60;99.90
31455;DHT22;18084;53.028;8.834;2023-06-10T18:10:17;29.20;99.90
31455;DHT22;18084;53.028;8.834;2023-06-10T18:12:43;28.40;99.90
31455;DHT22;18084;53.028;8.834;2023-06-10T18:15:08;28.30;99.90
31455;DHT22;18084;53.028;8.834;2023-06-10T18:17:34;28.20;99.90
31455;DHT22;18084;53.028;8.834;2023-06-10T18:20:01;30.60;99.90
31455;DHT22;18084;53.028;8.834;2023-06-10T18:22:27;28.10;99.90
31455;DHT22;18084;53.028;8.834;2023-06-10T18:24:53;28.40;99.90
31455;DHT22;18084;53.028;8.834;2023-06-10T18:27:18;27.20;99.90
31455;DHT22;18084;53.028;8.834;2023-06-10T18:29:44;27.90;99.90
31455;DHT22;18084;53.028;8.834;2023-06-10T18:32:09;27.80;99.90
31455;DHT22;18084;53.028;8.834;2023-06-10T18:34:35;27.70;99.90
31455;DHT22;18084;53.028;8.834;2023-06-10T18:37:06;27.60;99.90
31455;DHT22;18084;53.028;8.834;2023-06-10T18:39:32;27.50;99.90
31455;DHT22;18084;53.028;8.834;2023-06-10T18:41:58;28.20;99.90
31455;DHT22;18084;53.028;8.834;2023-06-10T18:44:26;27.10;99.90
31455;DHT22;18084;53.028;8.834;2023-06-10T18:46:51;27.00;99.90
31455;DHT22;18084;53.028;8.834;2023-06-10T18:49:17;26.90;99.90
31455;DHT22;18084;53.028;8.834;2023-06-10T18:51:42;26.80;99.90
31455;DHT22;18084;53.028;8.834;2023-06-10T18:54:08;28.40;99.90
31455;DHT22;18084;53.028;8.834;2023-06-10T18:56:34;27.80;99.90
31455;DHT22;18084;53.028;8.834;2023-06-10T18:59:02;27.50;99.90
31455;DHT22;18084;53.028;8.834;2023-06-10T19:01:28;26.30;99.90
31455;DHT22;18084;53.028;8.834;2023-06-10T19:03:53;26.20;99.90
31455;DHT22;18084;53.028;8.834;2023-06-10T19:06:19;27.70;99.90
31455;DHT22;18084;53.028;8.834;2023-06-10T19:08:44;26.10;99.90
31455;DHT22;18084;53.028;8.834;2023-06-10T19:11:10;26.00;1.00
31455;DHT22;18084;53.028;8.834;2023-06-10T19:13:37;25.90;1.00
31455;DHT22;18084;53.028;8.834;2023-06-10T19:16:03;25.80;1.00
31455;DHT22;18084;53.028;8.834;2023-06-10T19:18:28;25.80;1.00
31455;DHT22;18084;53.028;8.834;2023-06-10T19:20:54;25.80;1.00
31455;DHT22;18084;53.028;8.834;2023-06-10T19:38:41;25.20;99.90
31455;DHT22;18084;53.028;8.834;2023-06-10T19:41:07;25.50;99.90
31455;DHT22;18084;53.028;8.834;2023-06-10T19:43:33;25.90;99.90
31455;DHT22;18084;53.028;8.834;2023-06-10T19:45:59;24.80;99.90
31455;DHT22;18084;53.028;8.834;2023-06-10T19:48:24;24.50;99.90
31455;DHT22;18084;53.028;8.834;2023-06-10T19:50:50;24.40;99.90
31455;DHT22;18084;53.028;8.834;2023-06-10T19:53:16;24.30;99.90
31455;DHT22;18084;53.028;8.834;2023-06-10T19:55:41;24.20;99.90
31455;DHT22;18084;53.028;8.834;2023-06-10T19:58:06;24.00;99.90
31455;DHT22;18084;53.028;8.834;2023-06-10T20:00:32;23.90;99.90
31455;DHT22;18084;53.028;8.834;2023-06-10T20:02:57;23.80;99.90
31455;DHT22;18084;53.028;8.834;2023-06-10T20:05:23;23.70;99.90
31455;DHT22;18084;53.028;8.834;2023-06-10T20:07:49;23.60;99.90
31455;DHT22;18084;53.028;8.834;2023-06-10T20:10:14;23.50;99.90
31455;DHT22;18084;53.028;8.834;2023-06-10T20:12:41;23.50;99.90
31455;DHT22;18084;53.028;8.834;2023-06-10T20:15:07;23.40;99.90
31455;DHT22;18084;53.028;8.834;2023-06-10T20:17:33;23.30;99.90
31455;DHT22;18084;53.028;8.834;2023-06-10T20:20:00;23.20;99.90
31455;DHT22;18084;53.028;8.834;2023-06-10T20:22:25;23.10;99.90
31455;DHT22;18084;53.028;8.834;2023-06-10T20:24:51;23.60;1.00
31455;DHT22;18084;53.028;8.834;2023-06-10T20:27:19;23.50;1.00
31455;DHT22;18084;53.028;8.834;2023-06-10T20:29:45;23.00;1.00
31455;DHT22;18084;53.028;8.834;2023-06-10T20:32:10;23.80;1.00
31455;DHT22;18084;53.028;8.834;2023-06-10T20:34:36;22.70;1.00
31455;DHT22;18084;53.028;8.834;2023-06-10T20:37:05;23.40;1.00
31455;DHT22;18084;53.028;8.834;2023-06-10T20:39:31;22.60;1.00
31455;DHT22;18084;53.028;8.834;2023-06-10T20:41:57;23.30;1.00
31455;DHT22;18084;53.028;8.834;2023-06-10T20:44:22;23.10;1.00
31455;DHT22;18084;53.028;8.834;2023-06-10T20:46:48;23.10;1.00
31455;DHT22;18084;53.028;8.834;2023-06-10T20:49:15;23.30;25.90
31455;DHT22;18084;53.028;8.834;2023-06-10T20:51:43;23.10;52.90
